Time;durP1;ratioP1;P1;durP2;ratioP2;P2;SDS_P1;SDS_P2;PMS_P1;PMS_P2;Temp;Humidity;BMP_temperature;BMP_pressure;BME280_temperature;BME280_humidity;BME280_pressure;Samples;Min_cycle;Max_cycle;Signal;HPM_P1;HPM_P2
2019/05/02 00:01:53;;;;;;;21.5;11.9;;;;;;;13.65;53.66113;957.0653;;;;
2019/05/02 00:04:16;;;;;;;18.1;12.1;;;;;;;13.63;53.75293;957.0176;;;;
2019/05/02 00:06:49;;;;;;;17.5;11.7;;;;;;;13.67;53.59277;956.9391;;;;
2019/05/02 00:09:06;;;;;;;18.1;11.8;;;;;;;13.69;53.33594;956.9794;;;;
2019/05/02 00:11:31;;;;;;;17.3;11.8;;;;;;;13.64;53.30566;956.9752;;;;
2019/05/02 00:13:56;;;;;;;17.8;12.4;;;;;;;13.52;53.55078;956.9129;;;;
2019/05/02 00:16:21;;;;;;;18.4;12.1;;;;;;;13.47;53.83984;956.9217;;;;
2019/05/02 00:18:46;;;;;;;19.9;12.5;;;;;;;13.35;53.87207;956.923;;;;
2019/05/02 00:21:11;;;;;;;17.4;12.2;;;;;;;13.38;53.74609;956.9131;;;;
2019/05/02 00:23:36;;;;;;;16.7;12;;;;;;;13.4;53.59375;956.9365;;;;
2019/05/02 00:26:01;;;;;;;18;11.9;;;;;;;13.34;53.68164;956.9089;;;;
2019/05/02 00:28:28;;;;;;;17.8;12.6;;;;;;;13.36;53.25977;956.9139;;;;
2019/05/02 00:30:53;;;;;;;17.7;12.3;;;;;;;13.31;53.59668;956.8965;;;;
2019/05/02 00:33:18;;;;;;;19;12.9;;;;;;;13.29;53.00195;956.9102;;;;
2019/05/02 00:35:43;;;;;;;20.2;13.6;;;;;;;13.26;52.87012;956.8269;;;;
2019/05/02 00:38:09;;;;;;;20;13.1;;;;;;;13.16;53.31738;956.7952;;;;
2019/05/02 00:40:34;;;;;;;19.5;13.5;;;;;;;12.93;53.75;956.7905;;;;
2019/05/02 00:42:59;;;;;;;18.9;14.2;;;;;;;12.84;54.15039;956.6473;;;;
2019/05/02 00:45:25;;;;;;;20.5;13.6;;;;;;;12.87;53.90723;956.6717;;;;
2019/05/02 00:48:03;;;;;;;20.8;14.1;;;;;;;12.81;54.01758;956.631;;;;
2019/05/02 00:50:17;;;;;;;22.6;14.6;;;;;;;12.7;54.16797;956.7012;;;;
2019/05/02 02:03:34;;;;;;;19.6;13.9;;;;;;;11.46;56.09375;956.2444;;;;
2019/05/02 02:05:59;;;;;;;18.2;12.4;;;;;;;11.63;55.49219;956.2336;;;;
2019/05/02 02:08:24;;;;;;;17.9;12.6;;;;;;;11.44;55.97266;956.2562;;;;
2019/05/02 02:10:49;;;;;;;16.8;12.5;;;;;;;11.51;55.74707;956.2828;;;;
2019/05/02 02:13:14;;;;;;;17.6;12.2;;;;;;;11.5;55.75586;956.2464;;;;
2019/05/02 02:15:40;;;;;;;16.5;12.2;;;;;;;11.63;55.09277;956.2858;;;;
2019/05/02 02:18:05;;;;;;;17.9;13;;;;;;;11.64;54.94141;956.2492;;;;
2019/05/02 02:20:36;;;;;;;15.8;12;;;;;;;11.63;54.91699;956.2783;;;;
2019/05/02 02:23:09;;;;;;;16.7;12.3;;;;;;;11.72;54.58691;956.2782;;;;
2019/05/02 02:25:28;;;;;;;16.4;12.2;;;;;;;11.67;54.68652;956.3402;;;;
2019/05/02 02:27:45;;;;;;;19;12.2;;;;;;;11.57;54.88574;956.3273;;;;
2019/05/02 02:30:10;;;;;;;15.7;12.1;;;;;;;11.39;55.42578;956.2847;;;;
2019/05/02 02:32:36;;;;;;;17.4;11.5;;;;;;;11.38;55.57813;956.3198;;;;
2019/05/02 02:35:01;;;;;;;13.5;11.4;;;;;;;11.45;55.30469;956.294;;;;
2019/05/02 02:37:26;;;;;;;15.1;11.3;;;;;;;11.54;54.7998;956.2509;;;;
2019/05/02 02:39:51;;;;;;;15;11.2;;;;;;;11.63;54.58691;956.3527;;;;
2019/05/02 02:42:16;;;;;;;15.8;11.3;;;;;;;11.69;54.19629;956.2484;;;;
2019/05/02 02:44:53;;;;;;;17.1;10.9;;;;;;;11.71;54.15137;956.2584;;;;
2019/05/02 02:47:08;;;;;;;14.5;10.6;;;;;;;11.75;53.88477;956.2685;;;;
2019/05/02 02:49:33;;;;;;;14;10.8;;;;;;;11.74;53.88379;956.2572;;;;
2019/05/02 02:51:58;;;;;;;15.9;10.7;;;;;;;11.75;53.81445;956.1682;;;;
2019/05/02 02:54:23;;;;;;;15.1;11.2;;;;;;;11.7;53.78613;956.238;;;;
2019/05/02 02:56:48;;;;;;;16.3;10.8;;;;;;;11.73;53.72949;956.2208;;;;
2019/05/02 02:59:13;;;;;;;16.2;10.6;;;;;;;11.59;54.18262;956.1682;;;;
2019/05/02 03:01:38;;;;;;;14.4;10.9;;;;;;;11.62;54.10449;956.2275;;;;
2019/05/02 03:04:03;;;;;;;17.6;11.2;;;;;;;11.54;54.48145;956.1949;;;;
2019/05/02 03:06:30;;;;;;;16.7;11.1;;;;;;;11.49;54.71094;956.2165;;;;
2019/05/02 03:08:55;;;;;;;15;10.5;;;;;;;11.49;54.6748;956.2048;;;;
2019/05/02 03:11:22;;;;;;;13.8;10.8;;;;;;;11.5;54.51172;956.1591;;;;
2019/05/02 03:13:51;;;;;;;14.9;10.5;;;;;;;11.49;54.55859;956.1644;;;;
2019/05/02 03:16:14;;;;;;;15.8;10;;;;;;;11.53;54.55176;956.1481;;;;
2019/05/02 03:18:36;;;;;;;13.7;10.4;;;;;;;11.52;54.45605;956.1547;;;;
2019/05/02 03:21:01;;;;;;;14.2;10.8;;;;;;;11.49;54.5;956.1213;;;;
2019/05/02 03:23:26;;;;;;;13.9;10.3;;;;;;;11.44;54.5166;956.1016;;;;
2019/05/02 03:25:51;;;;;;;14;10.4;;;;;;;11.35;54.76367;956.0689;;;;
2019/05/02 03:28:16;;;;;;;12.7;9.8;;;;;;;11.42;54.52441;956.0743;;;;
2019/05/02 03:30:41;;;;;;;14.3;10.5;;;;;;;11.31;54.59375;956.1164;;;;
2019/05/02 03:33:07;;;;;;;12.6;9.7;;;;;;;11.34;54.62012;956.1107;;;;
2019/05/02 03:35:32;;;;;;;14.1;10.1;;;;;;;11.41;54.37207;956.1447;;;;
2019/05/02 03:37:57;;;;;;;14.8;10.1;;;;;;;11.35;54.39941;956.0872;;;;
2019/05/02 03:40:22;;;;;;;11.7;9.1;;;;;;;11.37;54.42578;956.062;;;;
2019/05/02 03:42:47;;;;;;;12;9.3;;;;;;;11.34;54.33984;956.0625;;;;
2019/05/02 03:45:12;;;;;;;14.9;9.9;;;;;;;11.35;54.29395;956.0168;;;;
2019/05/02 03:47:37;;;;;;;13.2;9;;;;;;;11.29;54.54492;956.0075;;;;
2019/05/02 03:50:03;;;;;;;13;9.7;;;;;;;11.37;54.20215;956.0306;;;;
2019/05/02 03:52:28;;;;;;;12.5;9.7;;;;;;;11.33;54.19629;956.043;;;;
2019/05/02 03:54:54;;;;;;;13.2;9.4;;;;;;;11.31;54.33496;956.0214;;;;
2019/05/02 03:57:19;;;;;;;14.7;9.9;;;;;;;11.27;54.31934;956.0193;;;;
2019/05/02 03:59:46;;;;;;;13.9;8.9;;;;;;;11.23;54.34863;955.9573;;;;
2019/05/02 04:02:27;;;;;;;12.9;10;;;;;;;11.21;54.3457;955.9709;;;;
2019/05/02 04:04:53;;;;;;;13.5;9;;;;;;;11.23;54.18457;956.0095;;;;
2019/05/02 04:07:18;;;;;;;10.7;8.7;;;;;;;11.27;54.00195;956.0101;;;;
2019/05/02 04:09:46;;;;;;;12.7;9.1;;;;;;;11.16;54.22266;955.9716;;;;
2019/05/02 04:12:11;;;;;;;12.3;8.9;;;;;;;11.17;54.28223;955.9741;;;;
2019/05/02 04:14:37;;;;;;;10.9;8.7;;;;;;;10.99;54.6709;955.9769;;;;
2019/05/02 04:17:02;;;;;;;12.8;9;;;;;;;11.13;54.30176;955.9421;;;;
2019/05/02 04:19:27;;;;;;;12.3;8.3;;;;;;;11.16;54.29395;955.9963;;;;
2019/05/02 04:21:53;;;;;;;12.1;8.8;;;;;;;11.14;54.43164;955.9913;;;;
2019/05/02 04:24:18;;;;;;;11.8;8.4;;;;;;;11.16;54.50586;956.0314;;;;
2019/05/02 04:26:45;;;;;;;10.9;8.3;;;;;;;11.1;54.7666;956.0168;;;;
2019/05/02 04:29:10;;;;;;;11.2;8.1;;;;;;;11.18;54.57813;955.9581;;;;
2019/05/02 04:31:37;;;;;;;11.2;8.6;;;;;;;11.15;54.69043;955.9821;;;;
2019/05/02 04:34:02;;;;;;;11.1;8.5;;;;;;;11.03;55.09766;955.9381;;;;
2019/05/02 04:36:29;;;;;;;10.1;8.1;;;;;;;11.08;54.92871;955.9727;;;;
2019/05/02 04:38:54;;;;;;;11.6;8.2;;;;;;;10.97;55.38477;955.9886;;;;
2019/05/02 04:41:22;;;;;;;12.4;8.4;;;;;;;10.94;55.64941;955.9683;;;;
2019/05/02 04:43:47;;;;;;;13.9;8.4;;;;;;;11.09;55.14258;955.97;;;;
2019/05/02 04:46:13;;;;;;;12.2;8.3;;;;;;;11.21;54.80566;955.9956;;;;
2019/05/02 04:48:38;;;;;;;11.6;8.2;;;;;;;11.24;54.78516;955.9599;;;;
2019/05/02 04:51:03;;;;;;;12.6;7.8;;;;;;;11.27;54.75293;956.0376;;;;
2019/05/02 04:53:28;;;;;;;12.2;8.4;;;;;;;11.07;55.47949;955.961;;;;
2019/05/02 04:55:54;;;;;;;12.1;8.1;;;;;;;11.17;55.19824;955.9728;;;;
2019/05/02 04:58:19;;;;;;;13;8.5;;;;;;;11.07;55.83105;956.0092;;;;
2019/05/02 05:00:45;;;;;;;14.7;8.4;;;;;;;11.15;55.67676;955.9547;;;;
2019/05/02 05:03:10;;;;;;;11.4;8.7;;;;;;;11.15;55.92383;956.0029;;;;
2019/05/02 05:05:35;;;;;;;13.3;8.1;;;;;;;11.12;56.0957;956.0255;;;;
2019/05/02 05:08:00;;;;;;;10.1;8;;;;;;;11.35;55.64453;956.0312;;;;
2019/05/02 05:10:25;;;;;;;12.4;8.3;;;;;;;11.17;56.30176;956.0041;;;;
2019/05/02 05:12:51;;;;;;;12;8;;;;;;;11.29;56.03516;956.0075;;;;
2019/05/02 05:15:17;;;;;;;11.8;7.9;;;;;;;11.49;55.39258;956.0562;;;;
2019/05/02 05:17:42;;;;;;;11.6;7.7;;;;;;;11.45;55.77441;956.0503;;;;
2019/05/02 05:20:08;;;;;;;12.1;8.1;;;;;;;11.45;55.80957;956.0334;;;;
2019/05/02 05:22:33;;;;;;;14;7.9;;;;;;;11.47;56.07031;955.9955;;;;
2019/05/02 05:25:03;;;;;;;14.2;7.8;;;;;;;11.52;55.61914;956.0151;;;;
2019/05/02 05:27:23;;;;;;;10.5;7.9;;;;;;;11.5;55.80469;956.0327;;;;
2019/05/02 05:29:48;;;;;;;15.4;7.6;;;;;;;11.58;55.86035;956.0353;;;;
2019/05/02 05:32:14;;;;;;;11.7;7.8;;;;;;;11.69;55.6875;956.0581;;;;
2019/05/02 05:34:39;;;;;;;12.2;7.7;;;;;;;11.73;55.68262;956.063;;;;
2019/05/02 05:37:05;;;;;;;13.3;8;;;;;;;11.68;56.02832;956.0856;;;;
2019/05/02 05:39:30;;;;;;;16.8;7.8;;;;;;;11.91;55.10449;956.0689;;;;
2019/05/02 05:41:56;;;;;;;10;7.7;;;;;;;12.06;54.67773;955.9918;;;;
2019/05/02 05:44:21;;;;;;;12.1;7.6;;;;;;;12.15;54.58105;956.0412;;;;
2019/05/02 05:46:47;;;;;;;11.7;7.5;;;;;;;12.28;54.6582;956.0411;;;;
2019/05/02 05:49:12;;;;;;;12.3;7.7;;;;;;;12.29;54.42383;956.0658;;;;
2019/05/02 05:51:38;;;;;;;12.6;8;;;;;;;12.47;54.27051;956.0347;;;;
2019/05/02 05:54:03;;;;;;;10.4;7.5;;;;;;;12.45;54.36133;956.0222;;;;
2019/05/02 05:56:28;;;;;;;12.5;8;;;;;;;12.5;54.23828;956.0901;;;;
2019/05/02 05:58:53;;;;;;;14.4;7.8;;;;;;;12.68;53.97754;956.0814;;;;
2019/05/02 06:01:18;;;;;;;11;7.5;;;;;;;12.7;53.97949;956.1044;;;;
2019/05/02 06:03:44;;;;;;;13.9;7.7;;;;;;;12.88;53.10645;956.114;;;;
2019/05/02 06:06:09;;;;;;;12.9;7.6;;;;;;;12.92;52.81641;956.0488;;;;
2019/05/02 06:08:35;;;;;;;12.9;7.6;;;;;;;13;52.65039;956.0195;;;;
2019/05/02 06:11:00;;;;;;;11.6;7.2;;;;;;;13.16;52.45703;956.0503;;;;
2019/05/02 06:13:25;;;;;;;11.5;7;;;;;;;13.27;52.30566;956.0542;;;;
2019/05/02 06:15:51;;;;;;;12.3;6.9;;;;;;;13.4;53.7002;956.1259;;;;
2019/05/02 06:18:16;;;;;;;13.2;7.3;;;;;;;13.5;53.05273;956.045;;;;
2019/05/02 06:20:41;;;;;;;10.6;7.1;;;;;;;13.62;51.7334;956.0944;;;;
2019/05/02 06:23:06;;;;;;;11.9;7.3;;;;;;;13.59;51.73047;956.0873;;;;
2019/05/02 06:25:31;;;;;;;13;7.8;;;;;;;13.33;52.1582;956.0963;;;;
2019/05/02 06:27:57;;;;;;;12.2;7.5;;;;;;;13.23;52.52441;956.1493;;;;
2019/05/02 06:30:22;;;;;;;10.2;6.9;;;;;;;13.42;52.27637;956.1776;;;;
2019/05/02 06:32:47;;;;;;;13.1;7;;;;;;;13.54;52.43262;956.0884;;;;
2019/05/02 06:35:12;;;;;;;13.9;7;;;;;;;13.74;51.64063;956.0497;;;;
2019/05/02 06:37:37;;;;;;;13.8;7.6;;;;;;;13.87;53.01367;956.0854;;;;
2019/05/02 06:40:02;;;;;;;14.2;7.6;;;;;;;13.98;51.49219;956.0067;;;;
2019/05/02 06:42:27;;;;;;;13.2;7.5;;;;;;;14.09;51.625;956.0142;;;;
2019/05/02 06:44:52;;;;;;;12;7.3;;;;;;;14.04;51.58203;956.0433;;;;
2019/05/02 06:47:18;;;;;;;10.6;7.5;;;;;;;14.18;52.58008;956.0369;;;;
2019/05/02 06:49:43;;;;;;;14.7;7.8;;;;;;;14.33;51.27344;956.0628;;;;
2019/05/02 06:52:08;;;;;;;16.4;8.2;;;;;;;14.51;51.1875;955.9626;;;;
2019/05/02 06:54:33;;;;;;;12.5;7.6;;;;;;;14.82;50.5752;956.1082;;;;
2019/05/02 06:56:58;;;;;;;14;7.8;;;;;;;14.89;49.75391;956.0511;;;;
2019/05/02 06:59:23;;;;;;;11.8;7.4;;;;;;;14.86;50.15234;956.0142;;;;
2019/05/02 07:03:50;;;;;;;12.8;7.7;;;;;;;15.22;49.19922;956.0842;;;;
2019/05/02 07:06:15;;;;;;;16.5;8.2;;;;;;;15.57;48.43164;955.9253;;;;
2019/05/02 07:08:42;;;;;;;13.2;8.1;;;;;;;15.52;49.35156;955.9439;;;;
2019/05/02 07:11:07;;;;;;;12.8;7.9;;;;;;;15.76;48.2041;955.9257;;;;
2019/05/02 07:13:33;;;;;;;14.7;7.9;;;;;;;16.04;47.71289;955.9072;;;;
2019/05/02 07:16:21;;;;;;;12.4;7.4;;;;;;;16.26;46.66797;955.8522;;;;
2019/05/02 07:18:26;;;;;;;16.7;7.9;;;;;;;16.35;47.06934;955.8912;;;;
2019/05/02 07:20:50;;;;;;;13.5;7.8;;;;;;;16.47;45.27637;955.8787;;;;
2019/05/02 07:23:15;;;;;;;13.8;7.6;;;;;;;16.62;45.32813;955.8078;;;;
2019/05/02 07:25:41;;;;;;;10.6;7.3;;;;;;;16.92;44.8584;955.851;;;;
2019/05/02 07:28:06;;;;;;;10.9;7;;;;;;;16.96;44.73242;955.8016;;;;
2019/05/02 07:30:31;;;;;;;13.4;7.5;;;;;;;16.94;44.43359;955.8328;;;;
2019/05/02 07:32:56;;;;;;;12.1;7.7;;;;;;;17.13;43.50098;955.7571;;;;
2019/05/02 07:35:21;;;;;;;13.2;7.3;;;;;;;17.34;41.98535;955.8449;;;;
2019/05/02 07:37:46;;;;;;;403.3;223.6;;;;;;;17.32;41.49609;955.7957;;;;
2019/05/02 07:40:14;;;;;;;223.8;206.3;;;;;;;17.1;42.34375;955.7728;;;;
2019/05/02 07:42:39;;;;;;;441.5;406.1;;;;;;;17.25;41.60742;955.7988;;;;
2019/05/02 07:45:06;;;;;;;396.6;369.9;;;;;;;17.53;42.11035;955.7859;;;;
2019/05/02 07:47:31;;;;;;;529.5;490.2;;;;;;;17.75;40.85645;955.8311;;;;
2019/05/02 07:49:56;;;;;;;621.7;569.2;;;;;;;17.84;40.14941;955.8039;;;;
2019/05/02 07:52:21;;;;;;;637;582.9;;;;;;;18;40.15332;955.7773;;;;
2019/05/02 07:54:46;;;;;;;570.4;525.6;;;;;;;18.15;40.64355;955.7462;;;;
2019/05/02 07:57:11;;;;;;;1046.5;908.3;;;;;;;18.21;38.95605;955.7143;;;;
2019/05/02 07:59:36;;;;;;;1099.8;924;;;;;;;18.51;39.25684;955.754;;;;
2019/05/02 08:02:02;;;;;;;889.4;792.4;;;;;;;18.79;39.83008;955.8091;;;;
2019/05/02 08:04:27;;;;;;;1376.1;999.9;;;;;;;18.88;38.9541;955.8157;;;;
2019/05/02 08:06:52;;;;;;;1552.4;999.9;;;;;;;18.94;38.1123;955.7742;;;;
2019/05/02 08:09:17;;;;;;;1330.9;967;;;;;;;19.02;37.66406;955.8422;;;;
2019/05/02 08:11:42;;;;;;;1149.5;901.8;;;;;;;19.25;38.0791;955.8393;;;;
2019/05/02 08:14:10;;;;;;;1307;962.6;;;;;;;19.51;37.99414;955.8033;;;;
2019/05/02 08:16:35;;;;;;;1260.1;870.9;;;;;;;19.35;36.84375;955.8344;;;;
2019/05/02 08:19:00;;;;;;;777.5;516;;;;;;;19.27;37.15918;955.7341;;;;
2019/05/02 08:21:25;;;;;;;384.4;272.3;;;;;;;19.28;36.53906;955.8155;;;;
2019/05/02 08:23:51;;;;;;;472.4;291.1;;;;;;;19.34;38.27832;955.7739;;;;
2019/05/02 08:26:16;;;;;;;490.4;223.9;;;;;;;19.69;36.66895;955.8078;;;;
2019/05/02 08:28:46;;;;;;;399;147.2;;;;;;;19.82;37.53027;955.8;;;;
2019/05/02 08:31:07;;;;;;;374.4;132;;;;;;;19.72;36.14551;955.8087;;;;
2019/05/02 08:33:32;;;;;;;632.2;263.2;;;;;;;19.61;35.46582;955.7944;;;;
2019/05/02 08:35:57;;;;;;;313.6;159.8;;;;;;;19.76;35.9209;955.7776;;;;
2019/05/02 08:38:23;;;;;;;371.2;231.2;;;;;;;19.67;35.79297;955.7112;;;;
2019/05/02 08:40:48;;;;;;;242;165.5;;;;;;;19.68;35.80566;955.717;;;;
2019/05/02 08:43:13;;;;;;;270;165.8;;;;;;;20.07;35.47949;955.7213;;;;
2019/05/02 08:45:38;;;;;;;509.8;215.3;;;;;;;20.17;35.73828;955.6648;;;;
2019/05/02 08:48:03;;;;;;;316.7;194.2;;;;;;;20.2;36.97559;955.666;;;;
2019/05/02 08:50:29;;;;;;;318.7;287;;;;;;;20.47;35.30664;955.5342;;;;
2019/05/02 08:52:54;;;;;;;567.5;416.1;;;;;;;20.5;33.8584;955.5541;;;;
2019/05/02 08:55:19;;;;;;;518.4;435.6;;;;;;;20.64;34.49219;955.5229;;;;
2019/05/02 08:57:44;;;;;;;732.6;508.5;;;;;;;20.78;34.56445;955.5655;;;;
2019/05/02 09:00:09;;;;;;;815.7;631.4;;;;;;;20.89;33.12012;955.5545;;;;
2019/05/02 09:02:36;;;;;;;850.8;658.6;;;;;;;20.95;33.18457;955.4652;;;;
2019/05/02 09:05:01;;;;;;;919;699.5;;;;;;;20.95;33.36426;955.4178;;;;
2019/05/02 09:07:29;;;;;;;735;573.3;;;;;;;20.91;33.42188;955.4833;;;;
2019/05/02 09:09:54;;;;;;;916.2;633.1;;;;;;;20.87;33.50293;955.4655;;;;
2019/05/02 09:12:19;;;;;;;1178.5;774.9;;;;;;;20.97;32.40625;955.3805;;;;
2019/05/02 09:14:45;;;;;;;1262.3;802.4;;;;;;;21.21;32.45996;955.4289;;;;
2019/05/02 09:17:10;;;;;;;1365.2;786.2;;;;;;;21.11;33.31738;955.4762;;;;
2019/05/02 09:19:35;;;;;;;769.1;361.1;;;;;;;21.35;33.04688;955.4221;;;;
2019/05/02 09:22:00;;;;;;;848.9;369.7;;;;;;;21.43;32.30762;955.4178;;;;
2019/05/02 09:24:26;;;;;;;1339.4;887.3;;;;;;;21.43;32.78906;955.4348;;;;
2019/05/02 09:26:52;;;;;;;1597.4;910.1;;;;;;;21.36;31.99023;955.411;;;;
2019/05/02 09:29:17;;;;;;;985.4;646.1;;;;;;;21.2;32.55469;955.3474;;;;
2019/05/02 09:31:42;;;;;;;1173;511;;;;;;;21.22;32.53223;955.3688;;;;
2019/05/02 09:34:07;;;;;;;533.1;252.4;;;;;;;21.42;32.5;955.291;;;;
2019/05/02 09:36:32;;;;;;;334.5;136.6;;;;;;;21.7;32.19531;955.2961;;;;
2019/05/02 09:38:58;;;;;;;176.2;60.7;;;;;;;21.84;31.72461;955.2548;;;;
2019/05/02 09:41:23;;;;;;;201.6;74.3;;;;;;;21.95;31.90039;955.2037;;;;
2019/05/02 09:43:48;;;;;;;107.2;33.1;;;;;;;22.21;30.88379;955.0941;;;;
2019/05/02 09:46:13;;;;;;;72.9;26.9;;;;;;;22.15;31.54199;955.1387;;;;
2019/05/02 09:48:38;;;;;;;116.8;32.4;;;;;;;22.38;30.30664;955.1024;;;;
2019/05/02 09:51:03;;;;;;;83.4;23.2;;;;;;;22.07;29.75488;955.0466;;;;
2019/05/02 09:53:28;;;;;;;297.6;72;;;;;;;21.92;30.00977;955.0651;;;;
2019/05/02 09:55:53;;;;;;;113;36.2;;;;;;;22.09;30.23828;955.0073;;;;
2019/05/02 09:58:19;;;;;;;65;20.9;;;;;;;22.51;30.43555;954.943;;;;
2019/05/02 10:00:53;;;;;;;118.1;37;;;;;;;22.42;29.46582;954.995;;;;
2019/05/02 10:03:09;;;;;;;87.2;24.9;;;;;;;22.61;29.39453;954.9558;;;;
2019/05/02 10:05:34;;;;;;;42.1;13;;;;;;;22.69;29.62793;954.995;;;;
2019/05/02 10:08:00;;;;;;;79.8;21.9;;;;;;;22.59;29.36816;954.8188;;;;
2019/05/02 10:10:25;;;;;;;92.8;32.8;;;;;;;22.77;29.23633;954.8027;;;;
2019/05/02 10:12:51;;;;;;;179.5;63.3;;;;;;;23.17;29.83008;954.8035;;;;
2019/05/02 10:15:16;;;;;;;112.7;36.3;;;;;;;23.3;30.42871;954.8786;;;;
2019/05/02 10:17:42;;;;;;;63;19.6;;;;;;;22.87;30.19434;954.7697;;;;
2019/05/02 10:20:07;;;;;;;24.8;11.2;;;;;;;23.2;29.16797;954.743;;;;
2019/05/02 10:22:32;;;;;;;13.1;9;;;;;;;23.03;29.22852;954.7051;;;;
2019/05/02 10:24:57;;;;;;;12.3;7.7;;;;;;;22.65;29.2998;954.6682;;;;
2019/05/02 10:27:22;;;;;;;22.1;9.3;;;;;;;22.77;29.77832;954.6263;;;;
2019/05/02 10:29:47;;;;;;;18.1;7.8;;;;;;;23.01;29.13086;954.644;;;;
2019/05/02 10:32:12;;;;;;;12.8;6.8;;;;;;;23.12;28.72852;954.5808;;;;
2019/05/02 10:34:37;;;;;;;19.2;8.4;;;;;;;23.27;28.83496;954.4664;;;;
2019/05/02 10:37:02;;;;;;;19.3;8.7;;;;;;;23.01;29.17969;954.4316;;;;
2019/05/02 10:39:33;;;;;;;19.3;8.1;;;;;;;22.49;29.20605;954.4786;;;;
2019/05/02 10:41:58;;;;;;;15.5;7.6;;;;;;;22.46;29.76953;954.4515;;;;
2019/05/02 10:44:23;;;;;;;40.3;12.1;;;;;;;21.78;30.89063;954.4928;;;;
2019/05/02 10:46:57;;;;;;;16.6;9.1;;;;;;;22.34;30.41211;954.3477;;;;
2019/05/02 10:49:19;;;;;;;13.3;7.7;;;;;;;22.72;29.38965;954.3678;;;;
2019/05/02 10:51:39;;;;;;;30.8;11.6;;;;;;;22.44;30.09375;954.239;;;;
2019/05/02 10:54:06;;;;;;;10;6.9;;;;;;;22.29;29.61328;954.2711;;;;
2019/05/02 10:56:31;;;;;;;13.5;6.9;;;;;;;22.29;29.34863;954.2484;;;;
2019/05/02 10:58:57;;;;;;;10.8;6.7;;;;;;;22.03;29.5127;954.2336;;;;
2019/05/02 11:01:22;;;;;;;19.4;7.6;;;;;;;22.18;29.53418;954.1863;;;;
2019/05/02 11:03:47;;;;;;;15.6;6.2;;;;;;;22.52;28.82227;954.1131;;;;
2019/05/02 11:06:12;;;;;;;11.4;6.6;;;;;;;22.32;29.41113;954.1183;;;;
2019/05/02 11:08:37;;;;;;;12;6;;;;;;;22.16;29.89355;954.0764;;;;
2019/05/02 11:11:04;;;;;;;79.7;18;;;;;;;21.34;29.88672;954.0903;;;;
2019/05/02 11:13:38;;;;;;;13.1;8.4;;;;;;;21.53;30.47754;954.0328;;;;
2019/05/02 11:16:58;;;;;;;13.5;6.5;;;;;;;21.85;30.82324;953.9903;;;;
2019/05/02 11:18:22;;;;;;;8.3;6.1;;;;;;;21.59;30.70898;954.0056;;;;
2019/05/02 11:20:45;;;;;;;10.4;6.7;;;;;;;21.73;30.71875;953.9469;;;;
2019/05/02 11:23:10;;;;;;;10.7;7.1;;;;;;;21.96;30.87793;953.8937;;;;
2019/05/02 11:25:35;;;;;;;11.5;6.8;;;;;;;21.93;30.09473;953.9805;;;;
2019/05/02 11:28:00;;;;;;;9;6.2;;;;;;;22.04;30.18652;953.9061;;;;
2019/05/02 11:30:25;;;;;;;11.7;5.9;;;;;;;22.32;29.71191;953.8642;;;;
2019/05/02 11:32:51;;;;;;;9.5;6.2;;;;;;;22.24;29.18945;953.8976;;;;
2019/05/02 11:35:16;;;;;;;35.6;10.3;;;;;;;22.01;29.39063;953.8736;;;;
2019/05/02 11:37:41;;;;;;;11.3;5.8;;;;;;;21.91;30.0332;953.8381;;;;
2019/05/02 11:40:06;;;;;;;12.4;7;;;;;;;21.79;30.25391;953.7302;;;;
2019/05/02 11:42:31;;;;;;;8.4;5.6;;;;;;;21.64;30.08789;953.8092;;;;
2019/05/02 11:44:56;;;;;;;14.5;7.5;;;;;;;21.95;30.625;953.7551;;;;
2019/05/02 11:47:21;;;;;;;25.5;9.6;;;;;;;22.23;29.91016;953.7551;;;;
2019/05/02 11:49:46;;;;;;;15.9;6.6;;;;;;;22.22;29.87402;953.6868;;;;
2019/05/02 11:52:11;;;;;;;10.6;5.9;;;;;;;22.15;30.03711;953.6179;;;;
2019/05/02 11:54:36;;;;;;;15;7.2;;;;;;;21.93;29.48145;953.5507;;;;
2019/05/02 11:57:01;;;;;;;13.2;6.7;;;;;;;22.33;29.09863;953.7034;;;;
2019/05/02 11:59:28;;;;;;;9.2;4.9;;;;;;;22.2;28.59668;953.6166;;;;
2019/05/02 12:03:09;;;;;;;17.6;7.5;;;;;;;22.26;28.80566;953.6457;;;;
2019/05/02 12:04:18;;;;;;;11.5;4.8;;;;;;;22.57;28.99414;953.5452;;;;
2019/05/02 12:06:43;;;;;;;10.2;5.9;;;;;;;22.46;28.75781;953.4833;;;;
2019/05/02 12:09:10;;;;;;;6.7;4.7;;;;;;;22.17;29.0166;953.4686;;;;
2019/05/02 12:11:33;;;;;;;39.5;8.6;;;;;;;22.03;27.51465;953.4515;;;;
2019/05/02 12:13:58;;;;;;;7.8;4.5;;;;;;;22.19;27.6582;953.3873;;;;
2019/05/02 12:16:25;;;;;;;19.1;7.3;;;;;;;21.93;28.16992;953.3669;;;;
2019/05/02 12:18:50;;;;;;;8.4;4.2;;;;;;;22.06;29.43066;953.4045;;;;
2019/05/02 12:21:16;;;;;;;7.3;4.8;;;;;;;22.41;26.5752;953.2609;;;;
2019/05/02 12:23:41;;;;;;;8;4.8;;;;;;;22.38;27.15137;953.2151;;;;
2019/05/02 12:26:06;;;;;;;7.7;4.8;;;;;;;21.99;27.7168;953.3203;;;;
2019/05/02 12:28:31;;;;;;;10.8;4.7;;;;;;;21.87;27.66211;953.2692;;;;
2019/05/02 12:30:56;;;;;;;7.4;4.1;;;;;;;22.24;27.66016;953.2497;;;;
2019/05/02 12:33:24;;;;;;;8.7;4.6;;;;;;;22.2;27.81445;953.2039;;;;
2019/05/02 12:35:47;;;;;;;14.9;5.8;;;;;;;22.08;28.37207;953.189;;;;
2019/05/02 12:38:12;;;;;;;11.2;5.3;;;;;;;22.08;29.16602;953.1322;;;;
2019/05/02 12:40:37;;;;;;;9.6;6.1;;;;;;;21.87;28.97266;953.1367;;;;
2019/05/02 12:43:02;;;;;;;9.1;5.2;;;;;;;21.96;29.63965;953.2006;;;;
2019/05/02 12:45:27;;;;;;;11.1;5.5;;;;;;;21.86;30.1748;953.1255;;;;
2019/05/02 12:47:52;;;;;;;10.3;5.1;;;;;;;21.92;30.10645;953.1301;;;;
2019/05/02 12:50:17;;;;;;;11.4;4.6;;;;;;;22.01;29.85938;953.1578;;;;
2019/05/02 12:52:43;;;;;;;10.8;5.1;;;;;;;22.13;28.92871;953.0931;;;;
2019/05/02 12:55:08;;;;;;;8.8;5;;;;;;;21.93;29.51758;953.0886;;;;
2019/05/02 12:57:33;;;;;;;10.6;5.3;;;;;;;21.59;30.34863;953.0783;;;;
2019/05/02 12:59:58;;;;;;;9.2;5.5;;;;;;;21.71;30.22363;953.0742;;;;
2019/05/02 13:04:33;;;;;;;12.4;6.1;;;;;;;21.71;30.78906;953.1044;;;;
2019/05/02 13:06:58;;;;;;;12;5.6;;;;;;;22.05;31.14941;953.0411;;;;
2019/05/02 13:09:24;;;;;;;11.8;6.6;;;;;;;22.39;31.06543;953.005;;;;
2019/05/02 13:12:10;;;;;;;12.6;6.6;;;;;;;22.46;31.05859;952.9338;;;;
2019/05/02 13:14:15;;;;;;;9.8;7.1;;;;;;;22.42;31.30859;952.848;;;;
2019/05/02 13:16:39;;;;;;;13.4;6.5;;;;;;;22.5;30.13379;952.8508;;;;
2019/05/02 13:19:04;;;;;;;9.2;6.3;;;;;;;22.37;31.43652;952.8892;;;;
2019/05/02 13:21:35;;;;;;;10.3;6.5;;;;;;;22.17;30.70117;952.8984;;;;
2019/05/02 13:24:08;;;;;;;23.6;9.1;;;;;;;22.18;31.36328;952.8434;;;;
2019/05/02 13:26:21;;;;;;;14.1;7;;;;;;;22.2;31.24414;952.8381;;;;
2019/05/02 13:28:46;;;;;;;11.6;7.1;;;;;;;22.09;30.82813;952.8141;;;;
2019/05/02 13:31:17;;;;;;;11.4;6.3;;;;;;;22.04;31.62988;952.823;;;;
2019/05/02 13:33:47;;;;;;;10.6;6.5;;;;;;;22.04;31.4375;952.7738;;;;
2019/05/02 13:36:01;;;;;;;13.3;7.1;;;;;;;22.19;31.67773;952.7698;;;;
2019/05/02 13:38:27;;;;;;;9.9;5.6;;;;;;;22.58;32.03027;952.6639;;;;
2019/05/02 13:40:52;;;;;;;16.2;8.2;;;;;;;22.66;30.44629;952.6342;;;;
2019/05/02 13:43:18;;;;;;;12.4;5.7;;;;;;;22.7;31.19531;952.6484;;;;
2019/05/02 13:49:17;;;;;;;11.6;6.3;;;;;;;22.77;30.48926;952.4537;;;;
2019/05/02 13:51:43;;;;;;;8.7;5.6;;;;;;;22.86;30.54395;952.4144;;;;
2019/05/02 13:54:10;;;;;;;11;5.8;;;;;;;22.79;30.5752;952.3988;;;;
2019/05/02 13:56:48;;;;;;;13.4;6;;;;;;;22.94;29.8623;952.3809;;;;
2019/05/02 13:59:02;;;;;;;12.4;5.8;;;;;;;23.04;29.86914;952.3513;;;;
2019/05/02 14:01:27;;;;;;;9.9;5.9;;;;;;;22.79;29.2373;952.3628;;;;
2019/05/02 14:03:56;;;;;;;11.2;5.6;;;;;;;22.63;30.02148;952.363;;;;
2019/05/02 14:06:21;;;;;;;10.1;5.4;;;;;;;22.3;29.74707;952.2957;;;;
2019/05/02 14:08:55;;;;;;;10.9;5.5;;;;;;;22.57;29.30664;952.2147;;;;
2019/05/02 14:11:53;;;;;;;15.6;6.1;;;;;;;22.76;28.69336;952.2431;;;;
2019/05/02 14:13:37;;;;;;;9.1;5.4;;;;;;;22.62;28.64844;952.2417;;;;
2019/05/02 14:16:02;;;;;;;8;5.7;;;;;;;22.72;28.75098;952.2275;;;;
2019/05/02 14:18:27;;;;;;;11.7;5.7;;;;;;;22.74;28.71582;952.2258;;;;
2019/05/02 14:20:52;;;;;;;11.6;5.3;;;;;;;22.81;28.9248;952.1923;;;;
2019/05/02 14:23:17;;;;;;;11.8;6.5;;;;;;;22.68;28.94141;952.1609;;;;
2019/05/02 14:25:42;;;;;;;11.9;5.6;;;;;;;22.67;29.50586;952.1453;;;;
2019/05/02 14:28:07;;;;;;;13;5.9;;;;;;;22.63;29.47949;952.1469;;;;
2019/05/02 14:30:33;;;;;;;10;5.8;;;;;;;22.59;28.99512;952.0631;;;;
2019/05/02 14:33:01;;;;;;;9.8;5.6;;;;;;;22.7;29.09863;952.0586;;;;
2019/05/02 14:35:34;;;;;;;10.1;5.5;;;;;;;22.64;29.61328;951.967;;;;
2019/05/02 14:38:07;;;;;;;9;5.5;;;;;;;22.56;29.57129;951.9587;;;;
2019/05/02 14:40:22;;;;;;;11.4;5.4;;;;;;;22.39;29.70508;952.0711;;;;
2019/05/02 14:42:38;;;;;;;11.9;5.7;;;;;;;22.24;30.11621;952.028;;;;
2019/05/02 14:45:03;;;;;;;12.2;6.6;;;;;;;22.37;29.78711;951.9797;;;;
2019/05/02 14:47:28;;;;;;;8.3;5.2;;;;;;;22.55;30.87207;952.1121;;;;
2019/05/02 14:49:54;;;;;;;16.5;5.7;;;;;;;22.68;29.91602;951.8879;;;;
2019/05/02 14:52:19;;;;;;;10.4;5.4;;;;;;;22.41;29.79004;951.8909;;;;
2019/05/02 14:54:44;;;;;;;13.9;5.3;;;;;;;22.25;30.81543;951.9275;;;;
2019/05/02 14:57:14;;;;;;;9.5;5.3;;;;;;;22.17;29.93066;951.938;;;;
2019/05/02 14:59:34;;;;;;;12.1;5.6;;;;;;;22.36;29.35352;951.866;;;;
2019/05/02 15:02:01;;;;;;;10;5.3;;;;;;;21.9;29.9248;951.9409;;;;
2019/05/02 15:04:24;;;;;;;8.9;5.4;;;;;;;22.02;29.94434;951.891;;;;
2019/05/02 15:06:50;;;;;;;22.9;7.5;;;;;;;22.04;29.95801;951.899;;;;
2019/05/02 15:09:16;;;;;;;15.6;6;;;;;;;21.98;30.1709;951.8303;;;;
2019/05/02 15:12:42;;;;;;;7.6;4.8;;;;;;;22.06;29.85059;951.8687;;;;
2019/05/02 15:14:08;;;;;;;25;6.8;;;;;;;22.14;29.89258;951.8145;;;;